Time;durP1;ratioP1;P1;durP2;ratioP2;P2;SDS_P1;SDS_P2;PMS_P1;PMS_P2;Temp;Humidity;BMP_temperature;BMP_pressure;BME280_temperature;BME280_humidity;BME280_pressure;Samples;Min_cycle;Max_cycle;Signal;HPM_P1;HPM_P2
2021/12/23 00:01:43;;;;;;;7.33;4.53;;;;;;;-10.55;100.00;101729.10;1591837;88;21117;-86
2021/12/23 00:04:10;;;;;;;8.40;3.85;;;;;;;-10.53;100.00;101726.62;1575561;90;21095;-85
2021/12/23 00:06:38;;;;;;;9.25;4.55;;;;;;;-10.52;100.00;101727.91;1591418;88;21635;-85
2021/12/23 00:09:06;;;;;;;9.13;5.35;;;;;;;-10.48;100.00;101724.69;1628941;87;21182;-86
2021/12/23 00:11:34;;;;;;;9.58;5.33;;;;;;;-10.41;100.00;101722.34;1620496;87;21098;-86
2021/12/23 00:14:05;;;;;;;8.05;4.42;;;;;;;-10.39;100.00;101725.77;1571988;89;21086;-86
2021/12/23 00:16:49;;;;;;;5.83;3.65;;;;;;;-10.40;100.00;101730.36;1607219;87;21621;-88
2021/12/23 00:24:41;;;;;;;6.37;4.00;;;;;;;-10.39;100.00;101740.88;1627517;86;20476;-86
2021/12/23 00:27:09;;;;;;;8.03;4.10;;;;;;;-10.37;100.00;101738.85;1599135;88;21119;-85
2021/12/23 00:29:39;;;;;;;7.22;4.47;;;;;;;-10.35;100.00;101732.55;1602195;88;21143;-86
2021/12/23 00:32:08;;;;;;;9.05;4.40;;;;;;;-10.35;100.00;101732.55;1598926;88;21174;-85
2021/12/23 00:34:38;;;;;;;8.20;4.62;;;;;;;-10.33;100.00;101733.47;1628565;86;21392;-87
2021/12/23 00:37:09;;;;;;;6.67;3.45;;;;;;;-10.32;100.00;101736.44;1601639;88;21056;-85
2021/12/23 00:39:34;;;;;;;8.28;4.25;;;;;;;-10.34;100.00;101740.18;1616341;86;21205;-85
2021/12/23 00:42:06;;;;;;;9.45;4.03;;;;;;;-10.35;100.00;101736.34;1612152;87;21113;-84
2021/12/23 00:44:30;;;;;;;9.70;4.50;;;;;;;-10.36;100.00;101738.02;1621783;87;21062;-86
2021/12/23 00:46:57;;;;;;;7.35;4.03;;;;;;;-10.36;100.00;101737.14;1628885;87;21174;-86
2021/12/23 00:49:24;;;;;;;8.60;4.15;;;;;;;-10.36;100.00;101734.63;1628399;86;21118;-86
2021/12/23 00:51:53;;;;;;;5.60;3.33;;;;;;;-10.35;100.00;101727.13;1596865;88;21035;-85
2021/12/23 00:54:21;;;;;;;8.40;4.20;;;;;;;-10.33;100.00;101730.95;1607051;87;21490;-86
2021/12/23 00:56:50;;;;;;;5.37;3.40;;;;;;;-10.32;100.00;101730.98;1607058;86;21401;-85
2021/12/23 00:59:17;;;;;;;7.37;3.72;;;;;;;-10.31;100.00;101731.44;1584595;88;21914;-88
2021/12/23 01:01:46;;;;;;;7.00;4.00;;;;;;;-10.31;100.00;101732.69;1617561;87;21147;-87
2021/12/23 01:04:13;;;;;;;3.67;2.27;;;;;;;-10.29;100.00;101731.47;1605195;87;21244;-85
2021/12/23 01:06:40;;;;;;;9.95;3.67;;;;;;;-10.28;100.00;101735.70;1614943;88;21268;-85
2021/12/23 01:09:09;;;;;;;8.28;3.67;;;;;;;-10.29;100.00;101731.47;1614589;88;21109;-87
2021/12/23 01:11:36;;;;;;;4.53;2.77;;;;;;;-10.30;100.00;101735.66;1615044;88;21170;-87
2021/12/23 01:14:26;;;;;;;7.67;4.03;;;;;;;-10.33;100.00;101726.75;1618161;86;21111;-86
2021/12/23 01:16:48;;;;;;;4.90;2.00;;;;;;;-10.32;100.00;101736.44;1621286;86;21089;-86
2021/12/23 01:19:12;;;;;;;7.55;3.95;;;;;;;-10.36;100.00;101729.20;1601453;87;21168;-86
2021/12/23 01:21:38;;;;;;;7.10;3.90;;;;;;;-10.37;100.00;101725.00;1600758;87;21656;-87
2021/12/23 01:24:09;;;;;;;9.85;3.37;;;;;;;-10.38;100.00;101726.22;1621966;87;22298;-86
2021/12/23 01:26:35;;;;;;;10.28;4.45;;;;;;;-10.39;100.00;101727.88;1592321;88;21761;-89
2021/12/23 01:29:03;;;;;;;9.85;4.47;;;;;;;-10.40;100.00;101729.09;1609559;85;21093;-89
2021/12/23 01:31:34;;;;;;;6.67;4.05;;;;;;;-10.41;100.00;101728.64;1625409;87;21067;-87
2021/12/23 01:34:02;;;;;;;4.92;2.90;;;;;;;-10.39;100.00;101725.35;1629433;86;21075;-90
2021/12/23 01:36:32;;;;;;;7.70;4.20;;;;;;;-10.38;100.00;101732.52;1592534;86;21805;-86
2021/12/23 01:38:59;;;;;;;5.00;3.37;;;;;;;-10.39;100.00;101729.13;1625446;86;21538;-86
2021/12/23 01:41:28;;;;;;;7.85;3.67;;;;;;;-10.37;100.00;101730.42;1625005;87;21599;-87
2021/12/23 01:43:57;;;;;;;7.58;3.75;;;;;;;-10.33;100.00;101730.53;1608593;87;21227;-86
2021/12/23 01:46:25;;;;;;;9.33;3.52;;;;;;;-10.29;100.00;101730.20;1620076;86;21086;-86
2021/12/23 01:48:54;;;;;;;7.33;4.05;;;;;;;-10.26;100.00;101724.01;1607570;87;22006;-88
2021/12/23 01:51:21;;;;;;;7.17;4.37;;;;;;;-10.22;100.00;101722.43;1589755;88;22284;-85
2021/12/23 01:53:49;;;;;;;8.50;4.20;;;;;;;-10.22;100.00;101730.86;1613563;86;21127;-85
2021/12/23 01:56:18;;;;;;;7.60;3.85;;;;;;;-10.21;100.00;101727.50;1616484;88;21742;-87
2021/12/23 01:58:46;;;;;;;6.55;3.90;;;;;;;-10.20;100.00;101726.70;1608162;87;22045;-87
2021/12/23 02:01:13;;;;;;;8.20;4.35;;;;;;;-10.19;100.00;101725.05;1612299;87;21828;-87
2021/12/23 02:03:42;;;;;;;8.15;4.70;;;;;;;-10.20;100.00;101730.48;1612727;87;21056;-87
2021/12/23 02:06:10;;;;;;;7.42;3.75;;;;;;;-10.20;100.00;101725.86;1613017;87;21032;-88
2021/12/23 02:08:40;;;;;;;4.67;2.60;;;;;;;-10.19;100.00;101729.67;1622675;86;21076;-87
2021/12/23 02:11:10;;;;;;;8.73;4.58;;;;;;;-10.19;100.00;101728.41;1624681;87;21111;-85
2021/12/23 02:13:38;;;;;;;7.03;3.90;;;;;;;-10.21;100.00;101724.98;1614031;87;21168;-86
2021/12/23 02:16:08;;;;;;;7.00;3.05;;;;;;;-10.22;100.00;101728.73;1599953;88;21047;-85
2021/12/23 02:18:36;;;;;;;5.62;2.70;;;;;;;-10.27;100.00;101729.86;1634638;86;21067;-87
2021/12/23 02:21:06;;;;;;;7.03;3.40;;;;;;;-10.31;100.00;101736.47;1635992;86;21118;-85
2021/12/23 02:23:35;;;;;;;;;;;;;;;-10.34;100.00;101738.92;1639570;86;21141;-87
2021/12/23 02:26:03;;;;;;;5.00;2.50;;;;;;;-10.35;100.00;101740.11;1613357;87;21080;-86
2021/12/23 02:28:30;;;;;;;4.80;2.52;;;;;;;-10.37;100.00;101743.02;1637297;85;21212;-87
2021/12/23 02:31:02;;;;;;;7.22;3.02;;;;;;;-10.39;100.00;101740.46;1583712;87;21114;-87
2021/12/23 02:33:30;;;;;;;4.03;2.37;;;;;;;-10.39;100.00;101748.44;1628386;86;21137;-88
2021/12/23 02:36:00;;;;;;;;;;;;;;;-10.40;100.00;101749.24;1607656;87;21182;-86
2021/12/23 02:38:27;;;;;;;5.50;3.10;;;;;;;-10.43;100.00;101742.84;1610887;87;21838;-86
2021/12/23 02:40:54;;;;;;;6.65;2.87;;;;;;;-10.44;100.00;101743.27;1612579;86;21669;-87
2021/12/23 02:43:25;;;;;;;5.87;2.85;;;;;;;-10.43;100.00;101744.10;1601772;88;21112;-87
2021/12/23 02:45:56;;;;;;;2.58;1.42;;;;;;;-10.43;100.00;101748.75;1616598;87;21019;-88
2021/12/23 02:48:32;;;;;;;1.92;1.40;;;;;;;-10.45;100.00;101739.03;1581808;89;21090;-86
2021/12/23 02:51:01;;;;;;;4.30;1.85;;;;;;;-10.44;100.00;101748.69;1635943;86;21137;-86
2021/12/23 02:53:28;;;;;;;4.25;2.12;;;;;;;-10.45;100.00;101748.27;1633325;86;21079;-88
2021/12/23 02:55:58;;;;;;;5.08;3.02;;;;;;;-10.46;100.00;101742.36;1612701;87;21137;-88
2021/12/23 02:58:26;;;;;;;3.72;2.35;;;;;;;-10.44;100.00;101742.39;1605873;88;21093;-87
2021/12/23 03:00:56;;;;;;;3.77;2.40;;;;;;;-10.44;100.00;101747.42;1613893;86;21576;-86
2021/12/23 03:03:23;;;;;;;;;;;;;;;-10.44;100.00;101748.69;1611956;88;21150;-87
2021/12/23 03:05:53;;;;;;;3.87;2.70;;;;;;;-10.44;100.00;101753.34;1617432;87;20184;-87
2021/12/23 03:08:34;;;;;;;6.65;2.30;;;;;;;-10.43;100.00;101751.66;1598373;87;21093;-87
2021/12/23 03:11:02;;;;;;;4.60;2.58;;;;;;;-10.43;100.00;101756.31;1608888;87;21510;-87
2021/12/23 03:13:29;;;;;;;6.90;2.77;;;;;;;-10.43;100.00;101755.05;1620789;88;21506;-87
2021/12/23 03:15:58;;;;;;;6.72;3.17;;;;;;;-10.42;100.00;101761.80;1601540;87;20996;-89
2021/12/23 03:18:26;;;;;;;7.72;2.20;;;;;;;-10.44;100.00;101757.50;1616971;88;21092;-87
2021/12/23 03:20:55;;;;;;;5.17;2.65;;;;;;;-10.48;100.00;101761.20;1618205;86;21113;-85
2021/12/23 03:23:22;;;;;;;4.75;1.95;;;;;;;-10.51;100.00;101765.30;1620950;86;21076;-86
2021/12/23 03:25:50;;;;;;;4.42;2.58;;;;;;;-10.58;100.00;101770.54;1619265;86;21116;-86
2021/12/23 03:28:17;;;;;;;3.50;2.42;;;;;;;-10.63;100.00;101780.89;1600163;88;21182;-85
2021/12/23 03:30:46;;;;;;;6.35;3.27;;;;;;;-10.69;100.00;101778.16;1617345;87;21131;-87
2021/12/23 03:33:13;;;;;;;4.03;2.33;;;;;;;-10.73;100.00;101780.14;1621702;86;21653;-86
2021/12/23 03:35:41;;;;;;;1.87;1.55;;;;;;;-10.79;100.00;101780.80;1592663;87;20975;-88
2021/12/23 03:38:09;;;;;;;5.33;2.80;;;;;;;-10.86;100.00;101783.93;1617020;87;21199;-87
2021/12/23 03:40:36;;;;;;;5.30;3.15;;;;;;;-10.90;100.00;101787.17;1614106;88;21172;-86
2021/12/23 03:43:04;;;;;;;5.10;2.85;;;;;;;-10.95;100.00;101787.02;1567412;88;21455;-87
2021/12/23 03:45:31;;;;;;;3.42;2.47;;;;;;;-10.98;100.00;101795.72;1613559;88;21063;-86
2021/12/23 03:47:58;;;;;;;6.62;3.30;;;;;;;-11.02;100.00;101797.70;1610312;87;21128;-91
2021/12/23 03:50:27;;;;;;;4.80;2.37;;;;;;;-11.06;100.00;101799.64;1629177;86;21129;-90
2021/12/23 03:52:54;;;;;;;4.90;2.00;;;;;;;-11.09;100.00;101802.92;1628543;87;21832;-90
2021/12/23 03:55:21;;;;;;;5.72;3.17;;;;;;;-11.11;100.00;101804.52;1574128;88;21086;-87
2021/12/23 03:57:49;;;;;;;6.58;2.58;;;;;;;-11.15;100.00;101807.34;1617398;86;21130;-87
2021/12/23 04:00:19;;;;;;;5.22;2.20;;;;;;;-11.19;100.00;101806.80;1596806;88;21111;-87
2021/12/23 04:02:47;;;;;;;6.67;3.70;;;;;;;-11.26;100.00;101802.37;1622925;86;23378;-86
2021/12/23 04:05:15;;;;;;;8.93;3.90;;;;;;;-11.31;100.00;101805.11;1608156;87;21176;-87
2021/12/23 04:07:44;;;;;;;5.95;3.05;;;;;;;-11.35;100.00;101812.95;1622816;87;21086;-86
2021/12/23 04:10:15;;;;;;;6.08;2.87;;;;;;;-11.38;100.00;101811.61;1609146;88;21119;-87
2021/12/23 04:12:43;;;;;;;3.25;1.77;;;;;;;-11.42;100.00;101809.77;1599919;87;21151;-87
2021/12/23 04:15:11;;;;;;;8.13;4.10;;;;;;;-11.48;100.00;101802.87;1611038;88;21038;-86
2021/12/23 04:17:38;;;;;;;7.08;3.58;;;;;;;-11.51;100.00;101796.88;1580658;89;21132;-86
2021/12/23 04:20:18;;;;;;;8.05;3.60;;;;;;;-11.54;100.00;101798.89;1606768;86;21040;-89
2021/12/23 04:22:46;;;;;;;6.17;3.20;;;;;;;-11.58;100.00;101793.31;1595938;86;21122;-86
2021/12/23 04:25:14;;;;;;;9.38;4.25;;;;;;;-11.63;100.00;101798.19;1598879;88;21063;-88
2021/12/23 04:27:44;;;;;;;7.67;4.20;;;;;;;-11.68;100.00;101813.90;1627913;87;21126;-87
2021/12/23 04:30:12;;;;;;;7.25;4.37;;;;;;;-11.74;100.00;101807.86;1611515;87;21244;-87
2021/12/23 04:32:42;;;;;;;9.25;4.25;;;;;;;-11.78;100.00;101813.56;1558342;90;21095;-86
2021/12/23 04:35:09;;;;;;;7.50;3.55;;;;;;;-11.84;100.00;101810.84;1543819;90;21177;-87
2021/12/23 04:37:37;;;;;;;7.20;3.72;;;;;;;-11.89;100.00;101813.18;1573498;90;21105;-90
2021/12/23 04:40:09;;;;;;;7.65;3.85;;;;;;;-11.91;100.00;101822.72;1568589;90;21160;-87
2021/12/23 04:42:38;;;;;;;11.93;4.17;;;;;;;-11.92;100.00;101819.75;1588038;90;21278;-87
2021/12/23 04:45:07;;;;;;;12.13;5.22;;;;;;;-11.89;100.00;101831.15;1588843;89;21623;-88
2021/12/23 04:47:36;;;;;;;9.10;4.25;;;;;;;-11.82;100.00;101830.60;1589975;90;22249;-86
2021/12/23 04:50:05;;;;;;;11.73;5.25;;;;;;;-11.84;100.00;101833.45;1588986;90;21036;-86
2021/12/23 04:52:33;;;;;;;6.33;3.90;;;;;;;-11.89;100.00;101839.95;1588710;90;21641;-86
2021/12/23 04:55:00;;;;;;;10.00;3.85;;;;;;;-11.98;100.00;101838.00;1587079;90;21877;-84
2021/12/23 04:57:27;;;;;;;10.13;5.28;;;;;;;-12.07;100.00;101850.20;1589237;90;21052;-84
2021/12/23 04:59:54;;;;;;;9.95;4.70;;;;;;;-12.13;100.00;101846.21;1617077;87;21605;-90
2021/12/23 05:02:21;;;;;;;10.45;4.40;;;;;;;-12.17;100.00;101850.64;1610749;86;21142;-86
2021/12/23 05:04:50;;;;;;;6.12;3.75;;;;;;;-12.23;100.00;101850.87;1583114;88;21143;-84
2021/12/23 05:07:18;;;;;;;11.53;4.75;;;;;;;-11.99;100.00;101859.30;1617996;87;21942;-83
2021/12/23 05:09:46;;;;;;;9.18;4.20;;;;;;;-11.84;100.00;101858.96;1615412;86;21093;-82
2021/12/23 05:12:14;;;;;;;9.28;4.70;;;;;;;-11.94;100.00;101861.16;1615494;87;21094;-84
2021/12/23 05:14:43;;;;;;;7.75;3.77;;;;;;;-12.05;100.00;101863.27;1609081;87;21079;-85
2021/12/23 05:17:10;;;;;;;10.10;5.10;;;;;;;-12.14;100.00;101864.59;1595490;88;21148;-84
2021/12/23 05:19:37;;;;;;;8.53;4.60;;;;;;;-12.23;100.00;101864.69;1614247;87;21173;-84
2021/12/23 05:22:05;;;;;;;10.00;4.90;;;;;;;-12.28;100.00;101867.81;1597656;88;21247;-84
2021/12/23 05:24:32;;;;;;;8.30;4.37;;;;;;;-12.33;100.00;101873.91;1602971;88;21122;-84
2021/12/23 05:27:00;;;;;;;8.80;3.95;;;;;;;-12.38;100.00;101869.12;1640123;86;21108;-84
2021/12/23 05:29:27;;;;;;;7.92;4.62;;;;;;;-12.39;100.00;101879.58;1601740;88;21134;-85
2021/12/23 05:31:54;;;;;;;10.38;6.05;;;;;;;-12.42;100.00;101880.70;1592356;88;21597;-87
2021/12/23 05:34:21;;;;;;;11.90;6.58;;;;;;;-12.46;100.00;101886.41;1615038;88;21575;-82
2021/12/23 05:36:48;;;;;;;9.45;5.47;;;;;;;-12.51;100.00;101884.50;1565590;90;21206;-83
2021/12/23 05:39:15;;;;;;;13.65;5.92;;;;;;;-12.56;100.00;101889.34;1591935;89;21738;-82
2021/12/23 05:41:42;;;;;;;12.05;7.33;;;;;;;-12.57;100.00;101895.98;1622077;87;21486;-85
2021/12/23 05:44:09;;;;;;;14.18;7.85;;;;;;;-12.60;100.00;101900.03;1621087;87;21742;-84
2021/12/23 05:46:37;;;;;;;11.30;6.65;;;;;;;-12.66;100.00;101897.28;1620378;87;21091;-85
2021/12/23 05:49:04;;;;;;;12.65;7.40;;;;;;;-12.71;100.00;101905.88;1598669;88;21499;-87
2021/12/23 05:51:31;;;;;;;12.58;7.55;;;;;;;-12.76;100.00;101906.93;1614986;87;21100;-87
2021/12/23 05:53:58;;;;;;;11.38;6.28;;;;;;;-12.79;100.00;101908.08;1575677;90;21078;-86
2021/12/23 05:56:25;;;;;;;10.58;6.22;;;;;;;-12.81;100.00;101909.66;1609023;87;21514;-86
2021/12/23 05:58:52;;;;;;;16.25;8.30;;;;;;;-12.82;100.00;101911.70;1588863;88;21746;-86
2021/12/23 06:01:19;;;;;;;15.25;8.30;;;;;;;-12.83;100.00;101916.25;1609771;88;21719;-87
2021/12/23 06:03:46;;;;;;;14.80;8.13;;;;;;;-12.81;100.00;101918.44;1609952;87;21063;-86
2021/12/23 06:06:15;;;;;;;18.05;9.78;;;;;;;-12.78;100.00;101924.85;1598700;88;21131;-87
2021/12/23 06:08:42;;;;;;;27.58;11.35;;;;;;;-12.71;100.00;101928.45;1600220;89;21221;-87
2021/12/23 06:11:09;;;;;;;13.50;6.70;;;;;;;-12.65;100.00;101931.62;1584187;89;21170;-86
2021/12/23 06:13:37;;;;;;;7.78;3.22;;;;;;;-12.60;100.00;101938.93;1595606;88;21739;-86
2021/12/23 06:16:04;;;;;;;14.03;7.65;;;;;;;-12.54;100.00;101940.47;1622203;87;21052;-86
2021/12/23 06:18:32;;;;;;;18.48;6.87;;;;;;;-12.49;100.00;101944.01;1585803;89;21648;-85
2021/12/23 06:21:00;;;;;;;17.80;7.37;;;;;;;-12.45;100.00;101947.09;1616813;87;21149;-86
2021/12/23 06:23:27;;;;;;;12.65;6.33;;;;;;;-12.42;100.00;101946.38;1622444;87;21095;-83
2021/12/23 06:25:54;;;;;;;9.28;4.30;;;;;;;-12.39;100.00;101941.47;1601116;88;21061;-82
2021/12/23 06:28:22;;;;;;;9.83;4.67;;;;;;;-12.36;100.00;101945.37;1607732;87;21082;-85
2021/12/23 06:30:49;;;;;;;15.72;6.75;;;;;;;-12.37;100.00;101948.26;1629131;87;21090;-84
2021/12/23 06:33:16;;;;;;;13.15;6.35;;;;;;;-12.35;100.00;101954.62;1615441;86;21931;-84
2021/12/23 06:35:44;;;;;;;15.65;6.70;;;;;;;-12.37;100.00;101953.28;1642012;86;21070;-83
2021/12/23 06:38:12;;;;;;;5.60;3.10;;;;;;;-12.38;100.00;101956.99;1618583;87;21118;-83
2021/12/23 06:40:41;;;;;;;10.63;5.20;;;;;;;-12.37;100.00;101969.59;1610864;89;21064;-84
2021/12/23 06:43:09;;;;;;;13.30;6.65;;;;;;;-12.40;100.00;101962.34;1626354;86;21116;-83
2021/12/23 06:45:36;;;;;;;11.43;5.67;;;;;;;-12.40;100.00;101964.47;1626027;85;21574;-83
2021/12/23 06:48:04;;;;;;;15.80;8.50;;;;;;;-12.40;100.00;101958.58;1621655;86;20994;-87
2021/12/23 06:50:31;;;;;;;13.93;8.65;;;;;;;-12.39;100.00;101953.64;1610793;89;22304;-83
2021/12/23 06:52:58;;;;;;;17.55;9.63;;;;;;;-12.34;100.00;101960.48;1593790;87;21587;-83
2021/12/23 06:55:25;;;;;;;11.28;5.85;;;;;;;-12.31;100.00;101960.21;1620636;87;21156;-83
2021/12/23 06:57:56;;;;;;;14.07;6.65;;;;;;;-12.27;100.00;101960.81;1610234;86;21083;-85
2021/12/23 07:00:22;;;;;;;11.30;5.70;;;;;;;-12.18;100.00;101964.48;1622803;86;21714;-83
2021/12/23 07:02:49;;;;;;;12.18;5.85;;;;;;;-12.08;100.00;101965.29;1628123;86;21143;-83
2021/12/23 07:05:18;;;;;;;7.10;3.67;;;;;;;-11.97;100.00;101968.22;1620926;87;21094;-83
2021/12/23 07:07:55;;;;;;;11.83;5.92;;;;;;;-11.90;100.00;101967.25;1620134;87;21072;-83
2021/12/23 07:10:30;;;;;;;12.28;6.05;;;;;;;-11.82;100.00;101971.70;1615963;86;21188;-83
2021/12/23 07:12:59;;;;;;;14.73;5.22;;;;;;;-11.75;100.00;101969.50;1609914;87;21111;-82
2021/12/23 07:15:28;;;;;;;8.83;4.83;;;;;;;-11.73;100.00;101980.45;1624292;87;21071;-83
2021/12/23 07:17:58;;;;;;;7.50;3.37;;;;;;;-11.70;100.00;101969.69;1603447;88;21074;-85
2021/12/23 07:20:35;;;;;;;10.25;3.33;;;;;;;-11.64;100.00;101977.45;1596171;89;21745;-82
2021/12/23 07:23:06;;;;;;;10.95;5.28;;;;;;;-11.63;100.00;101975.78;1610460;87;21609;-84
2021/12/23 07:25:36;;;;;;;10.23;5.65;;;;;;;-11.57;100.00;101973.48;1622946;86;21508;-85
2021/12/23 07:28:04;;;;;;;6.10;3.37;;;;;;;-11.50;100.00;101974.59;1606929;88;21063;-82
2021/12/23 07:30:31;;;;;;;6.62;2.80;;;;;;;-11.44;100.00;101979.84;1602836;87;21591;-83
2021/12/23 07:33:00;;;;;;;7.33;2.72;;;;;;;-11.43;100.00;101986.59;1576220;89;21201;-84
2021/12/23 07:35:30;;;;;;;7.17;4.35;;;;;;;-11.46;100.00;101973.50;1609673;87;21789;-84
2021/12/23 07:38:00;;;;;;;11.12;6.17;;;;;;;-11.52;100.00;101977.44;1622492;87;21115;-85
2021/12/23 07:40:27;;;;;;;10.25;5.45;;;;;;;-11.55;100.00;101980.70;1617583;86;21095;-87
2021/12/23 07:42:56;;;;;;;3.83;2.35;;;;;;;-11.56;100.00;101971.44;1590639;89;21065;-86
2021/12/23 07:45:28;;;;;;;9.38;5.47;;;;;;;-11.58;100.00;101968.87;1596119;88;21054;-82
2021/12/23 07:47:55;;;;;;;6.92;3.62;;;;;;;-11.59;100.00;101977.62;1610577;87;21863;-84
2021/12/23 07:50:23;;;;;;;8.45;3.83;;;;;;;-11.64;100.00;101984.12;1608199;87;21117;-83
2021/12/23 07:52:51;;;;;;;9.83;5.15;;;;;;;-11.65;100.00;101984.91;1597155;88;21174;-85
2021/12/23 07:55:20;;;;;;;11.57;4.55;;;;;;;-11.61;100.00;101985.50;1618348;87;21229;-84
2021/12/23 07:57:50;;;;;;;7.62;4.17;;;;;;;-11.53;100.00;101985.77;1628393;85;21075;-85
2021/12/23 08:00:18;;;;;;;10.03;3.95;;;;;;;-11.49;100.00;101990.14;1611513;87;21197;-85
2021/12/23 08:02:46;;;;;;;10.15;4.70;;;;;;;-11.46;100.00;101992.36;1603072;86;21103;-85
2021/12/23 08:05:13;;;;;;;4.92;2.58;;;;;;;-11.42;100.00;101987.05;1591442;87;21149;-85
2021/12/23 08:07:41;;;;;;;6.33;3.47;;;;;;;-11.38;100.00;101995.56;1601245;87;21176;-87
2021/12/23 08:10:09;;;;;;;4.03;2.67;;;;;;;-11.35;100.00;101990.66;1624923;85;21125;-88
2021/12/23 08:12:38;;;;;;;12.23;4.90;;;;;;;-11.35;100.00;101986.48;1611281;87;21148;-84
2021/12/23 08:15:06;;;;;;;6.10;3.12;;;;;;;-11.33;100.00;101989.03;1624470;88;21089;-83
2021/12/23 08:17:34;;;;;;;9.90;4.58;;;;;;;-11.33;100.00;101992.81;1572736;89;21143;-84
2021/12/23 08:20:03;;;;;;;4.42;3.00;;;;;;;-11.33;100.00;101993.69;1574437;89;21066;-85
2021/12/23 08:22:30;;;;;;;11.08;4.35;;;;;;;-11.32;100.00;101998.30;1579341;87;21045;-85
2021/12/23 08:24:57;;;;;;;7.60;4.15;;;;;;;-11.29;100.00;102000.52;1592634;87;21169;-84
2021/12/23 08:27:30;;;;;;;5.30;2.55;;;;;;;-11.25;100.00;101997.72;1613952;86;21158;-83
2021/12/23 08:29:54;;;;;;;6.15;3.58;;;;;;;-11.21;100.00;101999.56;1592651;87;21102;-85
2021/12/23 08:32:22;;;;;;;6.03;3.77;;;;;;;-11.12;100.00;101994.00;1582435;86;21086;-88
2021/12/23 08:34:49;;;;;;;5.00;3.60;;;;;;;-11.00;100.00;101993.58;1609288;87;20991;-86
2021/12/23 08:37:17;;;;;;;7.92;3.33;;;;;;;-10.91;100.00;101997.69;1610436;85;21803;-85
2021/12/23 08:39:47;;;;;;;7.10;3.02;;;;;;;-10.87;100.00;101986.95;1598295;88;21059;-84
2021/12/23 08:42:15;;;;;;;6.72;2.67;;;;;;;-10.88;100.00;101981.84;1590724;87;21579;-86
2021/12/23 08:44:44;;;;;;;7.90;4.08;;;;;;;-10.83;100.00;101978.69;1605636;87;21732;-86
2021/12/23 08:47:13;;;;;;;6.40;3.33;;;;;;;-10.72;100.00;101979.05;1588374;89;21245;-84
2021/12/23 08:49:43;;;;;;;8.28;4.10;;;;;;;-10.69;100.00;101976.66;1599352;88;22212;-87
2021/12/23 08:52:10;;;;;;;6.03;2.35;;;;;;;-10.72;100.00;101978.21;1617365;85;21130;-85
2021/12/23 08:54:37;;;;;;;7.08;3.55;;;;;;;-10.85;100.00;101986.58;1607199;86;21570;-84
2021/12/23 08:57:05;;;;;;;5.33;3.05;;;;;;;-11.02;100.00;101985.15;1609251;87;21083;-85
2021/12/23 08:59:32;;;;;;;14.35;5.55;;;;;;;-11.14;100.00;101985.15;1604910;87;21181;-84
2021/12/23 09:02:04;;;;;;;7.92;4.53;;;;;;;-11.19;100.00;101992.94;1586142;87;21326;-85
2021/12/23 09:04:38;;;;;;;10.08;4.08;;;;;;;-11.16;100.00;101984.64;1584491;87;21488;-85
2021/12/23 09:07:07;;;;;;;12.00;4.80;;;;;;;-11.16;100.00;101984.23;1588476;88;21528;-85
2021/12/23 09:09:45;;;;;;;8.93;3.62;;;;;;;-11.16;100.00;101991.78;1610187;88;21215;-86
2021/12/23 09:12:13;;;;;;;6.15;3.10;;;;;;;-11.18;100.00;101985.86;1601647;87;21112;-86
2021/12/23 09:14:41;;;;;;;5.90;2.52;;;;;;;-11.14;100.00;101983.89;1589712;89;21265;-84
2021/12/23 09:17:08;;;;;;;7.25;4.12;;;;;;;-11.05;100.00;101989.64;1640105;86;21099;-84
2021/12/23 09:19:36;;;;;;;3.60;2.60;;;;;;;-10.95;100.00;101991.70;1578388;88;21057;-86
2021/12/23 09:22:04;;;;;;;5.12;3.12;;;;;;;-10.86;100.00;101981.11;1606410;87;21130;-83
2021/12/23 09:24:32;;;;;;;9.35;3.75;;;;;;;-10.81;100.00;101983.77;1625968;86;21074;-85
2021/12/23 09:27:12;;;;;;;5.33;2.70;;;;;;;-10.76;100.00;101982.28;1607491;87;22274;-85
2021/12/23 09:34:53;;;;;;;3.15;2.20;;;;;;;-10.51;100.00;101978.93;1565109;90;21165;-85
2021/12/23 09:37:26;;;;;;;7.03;4.00;;;;;;;-10.45;100.00;101973.66;1579687;88;21190;-85
2021/12/23 09:39:56;;;;;;;8.05;3.65;;;;;;;-10.39;100.00;101976.37;1554254;90;22023;-85
2021/12/23 09:42:33;;;;;;;3.15;2.20;;;;;;;-10.39;100.00;101982.26;1602700;87;21092;-85
2021/12/23 09:45:05;;;;;;;7.17;3.75;;;;;;;-10.46;100.00;101980.34;1609020;87;21129;-86
2021/12/23 09:47:35;;;;;;;6.58;2.55;;;;;;;-10.57;100.00;101974.95;1603618;87;21150;-85
2021/12/23 09:50:07;;;;;;;10.80;4.35;;;;;;;-10.56;100.00;101965.34;1591193;87;21067;-86
2021/12/23 09:52:39;;;;;;;6.12;3.00;;;;;;;-10.52;100.00;101968.40;1586358;89;21109;-85
2021/12/23 09:55:08;;;;;;;12.47;4.75;;;;;;;-10.53;100.00;101967.94;1624875;85;21072;-84
2021/12/23 09:57:35;;;;;;;3.12;1.90;;;;;;;-10.52;100.00;101970.92;1595437;87;21063;-89
2021/12/23 10:00:06;;;;;;;7.67;4.37;;;;;;;-10.50;100.00;101969.31;1600514;87;21205;-86
2021/12/23 10:02:40;;;;;;;8.08;3.98;;;;;;;-10.46;100.00;101958.94;1617284;85;21647;-86
2021/12/23 10:05:10;;;;;;;6.70;2.70;;;;;;;-10.38;100.00;101949.13;1617326;87;21050;-85
2021/12/23 10:07:39;;;;;;;4.87;3.15;;;;;;;-10.31;100.00;101948.48;1609545;88;21068;-86
2021/12/23 10:10:16;;;;;;;5.65;3.30;;;;;;;-10.24;100.00;101944.09;1614572;87;21150;-85
2021/12/23 10:13:14;;;;;;;7.10;3.65;;;;;;;-10.13;100.00;101952.41;1546351;91;37926;-89
2021/12/23 10:27:04;;;;;;;2.35;2.05;;;;;;;-10.10;100.00;101945.80;1503307;93;21285;-84
2021/12/23 10:32:17;;;;;;;9.18;5.53;;;;;;;-9.86;100.00;101939.38;1593332;88;21198;-84
2021/12/23 10:37:20;;;;;;;5.22;3.17;;;;;;;-9.90;100.00;101941.38;1622945;87;21080;-86
2021/12/23 10:40:07;;;;;;;7.85;3.27;;;;;;;-10.01;100.00;101943.54;1587224;89;21044;-83
2021/12/23 10:42:36;;;;;;;6.12;3.72;;;;;;;-10.16;100.00;101941.80;1560530;90;21186;-85
2021/12/23 10:45:08;;;;;;;6.28;3.15;;;;;;;-10.26;100.00;101939.41;1615542;87;21769;-83
2021/12/23 10:47:55;;;;;;;8.33;4.67;;;;;;;-10.26;100.00;101943.18;1621501;87;21039;-90
2021/12/23 10:50:57;;;;;;;8.68;4.12;;;;;;;-10.16;100.00;101931.34;1598587;87;21128;-85
2021/12/23 10:53:11;;;;;;;8.25;4.42;;;;;;;-10.11;100.00;101931.48;1624060;86;21086;-88
2021/12/23 10:58:33;;;;;;;5.80;3.55;;;;;;;-10.20;100.00;101922.38;1637520;84;21059;-88
2021/12/23 11:01:02;;;;;;;7.97;3.47;;;;;;;-10.24;100.00;101927.72;1596163;88;21113;-82
2021/12/23 11:03:40;;;;;;;7.30;3.42;;;;;;;-10.18;100.00;101931.69;1597070;88;21093;-84
2021/12/23 11:06:24;;;;;;;3.47;1.92;;;;;;;-10.13;100.00;101934.77;1604545;87;21106;-84
2021/12/23 11:08:56;;;;;;;8.03;4.12;;;;;;;-10.20;100.00;101934.55;1598417;87;21149;-82
2021/12/23 11:43:58;;;;;;;6.47;3.12;;;;;;;-10.53;100.00;101939.40;1605082;87;21123;-84
2021/12/23 11:46:48;;;;;;;5.80;3.55;;;;;;;-10.58;100.00;101939.24;1582384;88;21120;-87
2021/12/23 11:49:13;;;;;;;4.58;2.72;;;;;;;-10.64;100.00;101933.59;1597710;88;22067;-83
2021/12/23 11:51:51;;;;;;;5.62;2.98;;;;;;;-10.66;100.00;101933.97;1572204;90;21226;-85
2021/12/23 11:54:36;;;;;;;8.53;4.33;;;;;;;-10.63;100.00;101936.98;1637616;84;21078;-84
2021/12/23 11:57:13;;;;;;;7.08;3.95;;;;;;;-10.59;100.00;101940.46;1606000;86;21086;-83
2021/12/23 11:59:46;;;;;;;7.55;4.28;;;;;;;-10.58;100.00;101927.07;1642036;84;21013;-83
2021/12/23 12:02:17;;;;;;;9.23;3.85;;;;;;;-10.58;100.00;101939.24;1627419;87;21224;-84
2021/12/23 12:04:46;;;;;;;7.92;3.95;;;;;;;-10.55;100.00;101938.48;1603000;87;21128;-84
2021/12/23 12:07:20;;;;;;;3.75;2.45;;;;;;;-10.52;100.00;101931.88;1609273;87;21075;-83
2021/12/23 12:10:09;;;;;;;9.03;4.08;;;;;;;-10.50;100.00;101937.84;1609616;87;21080;-84
2021/12/23 12:12:57;;;;;;;13.88;5.28;;;;;;;-10.53;100.00;101944.02;1590000;88;21092;-82
2021/12/23 12:15:43;;;;;;;10.15;4.47;;;;;;;-10.62;100.00;101947.09;1602816;87;21021;-84
2021/12/23 12:18:15;;;;;;;9.45;4.67;;;;;;;-10.77;100.00;101949.52;1589887;87;21813;-83
2021/12/23 12:20:53;;;;;;;11.40;4.60;;;;;;;-10.88;100.00;101948.73;1605262;87;21136;-86